Time;durP1;ratioP1;P1;durP2;ratioP2;P2;SDS_P1;SDS_P2;PMS_P1;PMS_P2;Temp;Humidity;BMP_temperature;BMP_pressure;BME280_temperature;BME280_humidity;BME280_pressure;Samples;Min_cycle;Max_cycle;Signal;HPM_P1;HPM_P2
2023/01/28 00:03:53;;;;;;;0.20;0.10;;;4.40;99.90;;;;;;21236641;27;20405;-70
2023/01/28 00:13:59;;;;;;;0.20;0.10;;;4.50;99.90;;;;;;21235104;27;20743;-71
2023/01/28 00:24:03;;;;;;;0.20;0.10;;;4.40;99.90;;;;;;21234319;27;21116;-70
2023/01/28 00:34:09;;;;;;;0.20;0.10;;;4.40;99.90;;;;;;21192745;27;20422;-71
2023/01/28 00:44:13;;;;;;;0.20;0.10;;;4.50;99.90;;;;;;21163507;27;20455;-71
2023/01/28 00:54:18;;;;;;;0.20;0.10;;;4.30;99.90;;;;;;21224297;27;20400;-68
2023/01/28 01:04:26;;;;;;;0.20;0.10;;;4.40;99.90;;;;;;21230988;27;20465;-69
2023/01/28 01:14:31;;;;;;;0.20;0.10;;;4.70;99.90;;;;;;21231108;27;20393;-71
2023/01/28 01:24:35;;;;;;;0.20;0.10;;;4.90;99.90;;;;;;21230582;27;20992;-72
2023/01/28 01:34:41;;;;;;;0.20;0.10;;;5.30;99.90;;;;;;21229892;27;20434;-71
2023/01/28 01:44:57;;;;;;;0.20;0.10;;;5.40;99.90;;;;;;21231340;27;20431;-73
2023/01/28 01:55:07;;;;;;;0.20;0.10;;;5.40;99.90;;;;;;21229347;28;20835;-71
2023/01/28 02:05:14;;;;;;;0.20;0.10;;;5.30;99.90;;;;;;21228648;28;20834;-71
2023/01/28 02:15:22;;;;;;;0.20;0.10;;;5.50;99.90;;;;;;21229731;27;20458;-71
2023/01/28 02:25:40;;;;;;;0.20;0.10;;;5.60;99.90;;;;;;21245093;27;20463;-72
2023/01/28 02:35:49;;;;;;;0.20;0.10;;;5.50;99.90;;;;;;21243785;27;20464;-71
2023/01/28 02:56:28;;;;;;;0.20;0.10;;;5.30;99.90;;;;;;21243503;27;20799;-71
2023/01/28 03:06:37;;;;;;;0.20;0.10;;;5.20;99.90;;;;;;21216834;27;20415;-71
2023/01/28 03:37:30;;;;;;;0.20;0.10;;;4.60;99.90;;;;;;21153418;27;20391;-69
2023/01/28 03:47:34;;;;;;;0.20;0.10;;;4.60;99.90;;;;;;21152572;28;20745;-72
2023/01/28 03:57:40;;;;;;;0.20;0.10;;;4.70;99.90;;;;;;21153875;28;20430;-72
2023/01/28 04:07:43;;;;;;;0.20;0.10;;;5.00;99.90;;;;;;21152731;28;20443;-71
2023/01/28 04:17:49;;;;;;;0.20;0.10;;;5.00;99.90;;;;;;21151589;28;20405;-70
2023/01/28 04:27:53;;;;;;;0.20;0.10;;;5.10;99.90;;;;;;21204743;27;20453;-69
2023/01/28 04:37:58;;;;;;;0.20;0.10;;;5.20;99.90;;;;;;21217942;27;20402;-69
2023/01/28 04:48:02;;;;;;;0.20;0.10;;;5.40;99.90;;;;;;21232138;27;20457;-70
2023/01/28 04:58:08;;;;;;;0.20;0.10;;;5.40;99.90;;;;;;21233400;27;20880;-70
2023/01/28 05:08:11;;;;;;;0.20;0.10;;;5.30;99.90;;;;;;21214665;27;20401;-71
2023/01/28 05:18:17;;;;;;;0.20;0.10;;;5.20;99.90;;;;;;21230587;27;20446;-71
2023/01/28 05:28:20;;;;;;;0.20;0.10;;;5.10;99.90;;;;;;21230490;27;20451;-70
2023/01/28 05:38:26;;;;;;;0.20;0.10;;;5.00;99.90;;;;;;21229006;27;20397;-70
2023/01/28 05:48:29;;;;;;;0.20;0.10;;;5.00;99.90;;;;;;21143215;28;20449;-70
2023/01/28 05:58:35;;;;;;;0.20;0.10;;;5.00;99.90;;;;;;21161034;28;20794;-72
2023/01/28 06:08:39;;;;;;;0.20;0.10;;;5.10;99.90;;;;;;21160975;28;20531;-72
2023/01/28 06:18:44;;;;;;;0.20;0.10;;;5.20;99.90;;;;;;21161516;28;20509;-72
2023/01/28 06:28:51;;;;;;;0.20;0.10;;;4.90;99.90;;;;;;21158992;28;20481;-71
2023/01/28 06:38:56;;;;;;;0.20;0.10;;;4.50;99.90;;;;;;21159701;28;20454;-61
2023/01/28 06:49:00;;;;;;;0.20;0.10;;;4.20;99.90;;;;;;21158096;28;20409;-70
2023/01/28 06:59:05;;;;;;;0.20;0.10;;;4.10;99.90;;;;;;21157947;27;20490;-70
2023/01/28 07:09:11;;;;;;;0.20;0.10;;;4.00;99.90;;;;;;21240466;27;20889;-70
2023/01/28 07:19:16;;;;;;;0.20;0.10;;;4.00;99.90;;;;;;21240006;27;20405;-70
2023/01/28 07:29:20;;;;;;;0.20;0.10;;;4.00;99.90;;;;;;21238414;27;20393;-70
2023/01/28 07:39:26;;;;;;;0.20;0.10;;;4.10;99.90;;;;;;21238646;27;20459;-70
2023/01/28 07:49:30;;;;;;;0.20;0.10;;;4.20;99.90;;;;;;21237392;27;20400;-66
2023/01/28 07:59:35;;;;;;;0.20;0.10;;;4.30;99.90;;;;;;21218220;27;20416;-69
2023/01/28 08:09:39;;;;;;;0.20;0.10;;;4.60;99.90;;;;;;21235527;27;20492;-69
2023/01/28 08:19:44;;;;;;;0.20;0.10;;;4.80;99.90;;;;;;21233805;27;20966;-69
2023/01/28 08:29:48;;;;;;;0.20;0.10;;;4.80;99.90;;;;;;21233690;27;20765;-70
2023/01/28 08:39:53;;;;;;;0.20;0.10;;;5.10;99.90;;;;;;21231843;27;20417;-69
2023/01/28 08:49:57;;;;;;;0.20;0.10;;;5.40;99.90;;;;;;21213199;27;21102;-70
2023/01/28 09:00:02;;;;;;;0.20;0.10;;;5.80;99.90;;;;;;21230971;27;20527;-71
2023/01/28 09:10:07;;;;;;;0.20;0.10;;;6.10;99.90;;;;;;21230468;27;20447;-71
2023/01/28 09:20:12;;;;;;;0.20;0.10;;;6.00;99.90;;;;;;21228345;27;20871;-70
2023/01/28 09:30:17;;;;;;;0.20;0.10;;;5.90;99.90;;;;;;21228165;27;20463;-71
2023/01/28 09:40:34;;;;;;;0.20;0.10;;;6.20;99.90;;;;;;21228040;28;20456;-70
2023/01/28 09:50:41;;;;;;;0.20;0.10;;;6.60;99.90;;;;;;21228128;27;20397;-71
2023/01/28 10:00:57;;;;;;;0.20;0.10;;;6.40;99.90;;;;;;21226295;28;20480;-70
2023/01/28 10:11:11;;;;;;;0.20;0.10;;;7.10;99.90;;;;;;21226812;27;20400;-72
2023/01/28 10:21:21;;;;;;;0.20;0.10;;;7.90;99.90;;;;;;21225681;28;20412;-70
2023/01/28 10:31:32;;;;;;;0.20;0.10;;;8.40;99.90;;;;;;21221022;28;20401;-70
2023/01/28 10:41:37;;;;;;;0.20;0.10;;;8.20;99.90;;;;;;21226533;27;20404;-71
2023/01/28 10:51:59;;;;;;;0.20;0.10;;;8.40;99.90;;;;;;21237213;27;20863;-71
2023/01/28 11:02:06;;;;;;;0.20;0.10;;;8.90;99.90;;;;;;21238882;27;20408;-70
2023/01/28 11:12:17;;;;;;;0.20;0.10;;;9.40;99.90;;;;;;21238353;27;20409;-69
2023/01/28 11:22:28;;;;;;;0.20;0.10;;;9.80;99.90;;;;;;21235975;27;20442;-70
2023/01/28 11:32:32;;;;;;;0.20;0.10;;;10.20;99.90;;;;;;21236281;27;21080;-70
2023/01/28 11:42:38;;;;;;;0.20;0.10;;;11.60;99.90;;;;;;21235670;27;20416;-69
2023/01/28 11:52:58;;;;;;;0.20;0.10;;;11.10;99.90;;;;;;21233758;27;20424;-69
2023/01/28 12:03:30;;;;;;;0.20;0.10;;;11.40;99.90;;;;;;21232697;27;20832;-70
2023/01/28 12:13:48;;;;;;;1.30;1.30;;;11.60;99.90;;;;;;21229628;27;20914;-69
2023/01/28 12:24:06;;;;;;;0.20;0.10;;;11.80;99.90;;;;;;21230751;27;20419;-69
2023/01/28 12:34:44;;;;;;;0.20;0.10;;;14.40;99.90;;;;;;21229444;27;20417;-70
2023/01/28 12:44:54;;;;;;;0.20;0.10;;;11.80;99.90;;;;;;21184719;27;20420;-70
2023/01/28 12:55:04;;;;;;;0.20;0.10;;;11.70;99.90;;;;;;21227600;27;20449;-68
2023/01/28 13:05:15;;;;;;;0.20;0.03;;;14.40;99.90;;;;;;21227027;27;20411;-70
2023/01/28 13:15:20;;;;;;;0.20;0.10;;;14.20;99.90;;;;;;21227602;27;20385;-69
2023/01/28 13:25:27;;;;;;;0.20;0.10;;;12.00;99.90;;;;;;21226526;27;20405;-69
2023/01/28 13:35:37;;;;;;;0.20;0.03;;;10.90;99.90;;;;;;21227164;27;20447;-70
2023/01/28 13:45:42;;;;;;;0.20;0.07;;;11.40;99.90;;;;;;21228249;28;20807;-69
2023/01/28 13:55:49;;;;;;;0.20;0.10;;;12.80;99.90;;;;;;21225722;28;20397;-68
2023/01/28 14:06:21;;;;;;;0.20;0.10;;;13.20;99.90;;;;;;21186833;27;20431;-70
2023/01/28 14:16:38;;;;;;;0.20;0.10;;;11.60;99.90;;;;;;21179443;27;20461;-69
2023/01/28 14:26:52;;;;;;;0.20;0.10;;;12.40;99.90;;;;;;21162547;27;20799;-70
2023/01/28 14:37:01;;;;;;;0.20;0.10;;;11.90;99.90;;;;;;21164578;27;20506;-70
2023/01/28 14:47:38;;;;;;;0.20;0.10;;;12.40;99.90;;;;;;21190042;27;20401;-68
2023/01/28 14:57:48;;;;;;;0.20;0.10;;;13.50;99.90;;;;;;21175366;27;20427;-68
2023/01/28 15:07:54;;;;;;;0.20;0.10;;;11.60;99.90;;;;;;21195164;27;20858;-69
2023/01/28 15:18:02;;;;;;;0.20;0.10;;;12.20;99.90;;;;;;21227937;27;20389;-71
2023/01/28 15:28:17;;;;;;;0.20;0.10;;;11.10;99.90;;;;;;21234721;27;20457;-70
2023/01/28 15:38:22;;;;;;;0.20;0.10;;;10.50;99.90;;;;;;21228150;27;20404;-69
2023/01/28 15:48:30;;;;;;;0.20;0.10;;;10.30;99.90;;;;;;21219006;27;20416;-70
2023/01/28 15:58:36;;;;;;;0.20;0.10;;;10.30;99.90;;;;;;21226702;27;20414;-71
2023/01/28 16:08:46;;;;;;;0.20;0.10;;;10.10;99.90;;;;;;21227634;27;20933;-69
2023/01/28 16:18:54;;;;;;;0.20;0.10;;;9.70;99.90;;;;;;21211828;27;20828;-70
2023/01/28 16:29:01;;;;;;;0.20;0.10;;;9.10;99.90;;;;;;21236259;27;20826;-70
2023/01/28 16:39:05;;;;;;;0.20;0.10;;;8.90;99.90;;;;;;21248040;27;20413;-73
2023/01/28 16:49:11;;;;;;;0.20;0.10;;;8.60;99.90;;;;;;21262000;27;20983;-70
2023/01/28 16:59:15;;;;;;;0.20;0.10;;;8.60;99.90;;;;;;21255970;27;20445;-71
2023/01/28 17:09:20;;;;;;;0.20;0.10;;;8.60;99.90;;;;;;21266519;27;20399;-72
2023/01/28 17:19:24;;;;;;;0.20;0.10;;;8.40;99.90;;;;;;21241506;27;20414;-71
2023/01/28 17:29:29;;;;;;;0.20;0.10;;;8.20;99.90;;;;;;21255867;27;20403;-71
2023/01/28 17:39:33;;;;;;;0.20;0.10;;;8.60;99.90;;;;;;21233652;27;20950;-72
2023/01/28 17:49:38;;;;;;;0.20;0.10;;;8.70;99.90;;;;;;21320065;27;20838;-69
2023/01/28 17:59:42;;;;;;;0.20;0.10;;;8.40;99.90;;;;;;21310574;27;20460;-67
2023/01/28 18:09:47;;;;;;;0.20;0.10;;;8.50;99.90;;;;;;21275508;27;20451;-71
2023/01/28 18:19:51;;;;;;;0.20;0.10;;;8.50;99.90;;;;;;21265379;27;20393;-71
2023/01/28 18:29:56;;;;;;;0.20;0.10;;;8.10;99.90;;;;;;21272682;27;20418;-71
2023/01/28 18:40:01;;;;;;;0.20;0.10;;;8.00;99.90;;;;;;21264651;27;20789;-71
2023/01/28 18:50:07;;;;;;;0.20;0.10;;;7.90;99.90;;;;;;21245878;27;20481;-73
2023/01/28 19:00:12;;;;;;;0.20;0.10;;;7.90;99.90;;;;;;21230047;27;20397;-73
2023/01/28 19:10:18;;;;;;;0.20;0.10;;;7.70;99.90;;;;;;21228978;27;20408;-71
2023/01/28 19:20:22;;;;;;;0.20;0.10;;;7.80;99.90;;;;;;21233389;27;20397;-71
2023/01/28 19:30:27;;;;;;;0.20;0.10;;;7.70;99.90;;;;;;21230237;27;20412;-72
2023/01/28 19:40:31;;;;;;;0.20;0.07;;;7.70;99.90;;;;;;21230296;27;20443;-73
2023/01/28 19:50:37;;;;;;;0.20;0.10;;;7.60;99.90;;;;;;21226356;27;20767;-71
2023/01/28 20:00:41;;;;;;;0.20;0.10;;;7.60;99.90;;;;;;21229569;27;20409;-82
2023/01/28 20:10:46;;;;;;;0.20;0.10;;;7.60;99.90;;;;;;21221030;27;20742;-73
2023/01/28 20:20:52;;;;;;;0.20;0.10;;;7.50;99.90;;;;;;21228339;27;20397;-74
2023/01/28 20:31:03;;;;;;;0.20;0.10;;;7.50;99.90;;;;;;21228081;27;20405;-72
2023/01/28 20:41:07;;;;;;;0.20;0.10;;;7.30;99.90;;;;;;21225878;27;20404;-71
2023/01/28 20:51:15;;;;;;;0.20;0.10;;;7.00;99.90;;;;;;21226189;27;20408;-71
2023/01/28 21:01:20;;;;;;;0.20;0.10;;;7.00;99.90;;;;;;21225383;27;20899;-72
2023/01/28 21:11:26;;;;;;;0.20;0.10;;;6.70;99.90;;;;;;21225522;27;20438;-73
2023/01/28 21:21:31;;;;;;;0.20;0.10;;;6.80;99.90;;;;;;21219939;27;20404;-74
2023/01/28 21:31:36;;;;;;;0.20;0.10;;;7.00;99.90;;;;;;21220214;27;20393;-73
2023/01/28 21:41:40;;;;;;;0.20;0.10;;;7.00;99.90;;;;;;21221471;27;20401;-74
2023/01/28 21:51:46;;;;;;;0.20;0.10;;;7.10;99.90;;;;;;21208211;28;20461;-74
2023/01/28 22:01:49;;;;;;;0.20;0.10;;;7.00;99.90;;;;;;21217624;28;20417;-68
2023/01/28 22:11:55;;;;;;;0.20;0.10;;;6.90;99.90;;;;;;21149766;28;20610;-72
2023/01/28 22:21:59;;;;;;;0.20;0.10;;;7.00;99.90;;;;;;21123893;28;20502;-73
2023/01/28 22:32:04;;;;;;;0.20;0.10;;;6.80;99.90;;;;;;21140919;28;20814;-74
2023/01/28 22:42:08;;;;;;;0.20;0.10;;;6.50;99.90;;;;;;21154962;28;20446;-72
2023/01/28 22:52:13;;;;;;;0.20;0.10;;;6.40;99.90;;;;;;21168524;27;20435;-73
2023/01/28 23:02:17;;;;;;;0.20;0.10;;;6.50;99.90;;;;;;21201547;27;20415;-77
2023/01/28 23:12:22;;;;;;;0.20;0.10;;;6.30;99.90;;;;;;21181953;27;20402;-71
2023/01/28 23:32:56;;;;;;;0.20;0.10;;;6.70;99.90;;;;;;21234650;27;20461;-73
2023/01/28 23:42:59;;;;;;;0.20;0.10;;;6.40;99.90;;;;;;21218368;27;20400;-73
2023/01/28 23:53:11;;;;;;;0.20;0.10;;;6.10;99.90;;;;;;21221658;27;20393;-72
